Ancora, New Jersey
Current Conditions -  °F | °C
As of 1:54 AM on Friday 19 Dec 2014 (Local Time) from KACY Reporting Station
Broken Clouds Broken Clouds  
Wind Chill: -3°   Ceiling: 12000
Heat Index:   Visibility: 10mi
Dew Point: -3°   Wind: 10mph
Humidity: 70%   Direction: 280°W
Pressure: 30.02"   Gusts: NA
Location:  39.637°N, 74.7602°W
Report Text: KACY 190654Z 28009KT 10SM BKN120 02/M03 A3002 RMK AO2 SLP167 T00171033
Loading
Personal Weather Stations






























Interactive Weather Map New forecast layout! Learn more

10-Day Weather Forecast

Advertisements
Track Severe Weather on mobile